createdAt,value
2022-07-26T00:00:16.363Z,537.90
2022-07-26T00:01:16.421Z,528.50
2022-07-26T00:02:18.496Z,526.70
2022-07-26T00:03:16.318Z,521.60
2022-07-26T00:04:16.395Z,527.00
2022-07-26T00:05:16.284Z,523.20
2022-07-26T00:06:16.284Z,512.20
2022-07-26T00:07:16.299Z,515.00
2022-07-26T00:08:16.254Z,505.90
2022-07-26T00:09:16.252Z,446.20
2022-07-26T00:10:16.334Z,509.60
2022-07-26T00:11:16.220Z,518.00
2022-07-26T00:12:16.248Z,525.90
2022-07-26T00:13:16.213Z,528.30
2022-07-26T00:14:16.306Z,530.80
2022-07-26T00:15:16.215Z,545.80
2022-07-26T00:16:16.385Z,538.70
2022-07-26T00:17:16.192Z,551.00
2022-07-26T00:18:16.245Z,576.50
2022-07-26T00:19:17.046Z,556.20
2022-07-26T00:20:16.249Z,510.60
2022-07-26T00:21:16.142Z,540.30
2022-07-26T00:22:16.300Z,475.70
2022-07-26T00:23:16.134Z,433.90
2022-07-26T00:24:16.106Z,495.20
2022-07-26T00:25:16.090Z,495.10
2022-07-26T00:26:16.203Z,443.20
2022-07-26T00:27:16.116Z,445.60
2022-07-26T00:28:16.063Z,417.50
2022-07-26T00:29:16.059Z,420.50
2022-07-26T00:30:16.055Z,390.40
2022-07-26T00:31:16.131Z,380.10
2022-07-26T00:32:16.137Z,366.50
2022-07-26T00:33:16.011Z,371.80
2022-07-26T00:34:16.008Z,340.30
2022-07-26T00:35:15.973Z,377.30
2022-07-26T00:36:15.972Z,331.20
2022-07-26T00:37:20.130Z,323.20
2022-07-26T00:38:15.955Z,351.90
2022-07-26T00:39:15.952Z,342.60
2022-07-26T00:40:15.926Z,336.90
2022-07-26T00:41:15.934Z,327.50
2022-07-26T00:42:15.946Z,324.50
2022-07-26T00:43:15.898Z,310.70
2022-07-26T00:44:15.902Z,337.60
2022-07-26T00:45:15.894Z,393.10
2022-07-26T00:46:15.921Z,322.30
2022-07-26T00:47:15.894Z,337.20
2022-07-26T00:48:15.851Z,310.70
2022-07-26T00:49:15.911Z,320.00
2022-07-26T00:50:15.830Z,394.30
2022-07-26T00:51:15.817Z,324.60
2022-07-26T00:52:15.833Z,372.60
2022-07-26T00:53:15.787Z,357.30
2022-07-26T00:54:15.839Z,332.80
2022-07-26T00:55:15.764Z,377.20
2022-07-26T00:56:15.754Z,345.90
2022-07-26T00:57:15.771Z,345.50
2022-07-26T00:58:15.733Z,357.90
2022-07-26T00:59:15.745Z,350.80
2022-07-26T01:00:15.726Z,325.40
2022-07-26T01:01:15.783Z,313.60
2022-07-26T01:02:15.791Z,311.50
2022-07-26T01:03:15.694Z,324.70
2022-07-26T01:04:15.666Z,315.20
2022-07-26T01:05:15.661Z,301.10
2022-07-26T01:06:15.642Z,298.00
2022-07-26T01:07:15.917Z,283.50
2022-07-26T01:08:15.612Z,308.10
2022-07-26T01:09:15.606Z,277.40
2022-07-26T01:10:15.598Z,296.60
2022-07-26T01:11:15.602Z,277.20
2022-07-26T01:12:15.630Z,310.70
2022-07-26T01:13:15.572Z,293.10
2022-07-26T01:14:15.547Z,278.10
2022-07-26T01:15:15.555Z,318.00
2022-07-26T01:16:15.571Z,403.90
2022-07-26T01:17:15.606Z,327.20
2022-07-26T01:18:15.503Z,334.50
2022-07-26T01:19:15.532Z,327.80
2022-07-26T01:20:15.493Z,334.80
2022-07-26T01:21:15.469Z,367.60
2022-07-26T01:22:15.502Z,356.50
2022-07-26T01:23:15.458Z,359.10
2022-07-26T01:24:15.442Z,373.20
2022-07-26T01:25:15.438Z,404.50
2022-07-26T01:26:15.417Z,387.00
2022-07-26T01:27:15.450Z,435.80
2022-07-26T01:28:19.832Z,433.30
2022-07-26T01:29:16.380Z,512.40
2022-07-26T01:30:15.382Z,475.50
2022-07-26T01:31:15.457Z,477.70
2022-07-26T01:32:15.400Z,453.90
2022-07-26T01:33:15.347Z,479.30
2022-07-26T01:34:15.328Z,550.60
2022-07-26T01:35:15.319Z,528.90
2022-07-26T01:36:15.301Z,523.70
2022-07-26T01:37:15.322Z,543.10
2022-07-26T01:38:15.285Z,545.20
2022-07-26T01:39:15.281Z,549.10
2022-07-26T01:40:15.274Z,554.30
2022-07-26T01:41:15.270Z,547.30
2022-07-26T01:42:15.268Z,456.70
2022-07-26T01:43:15.236Z,552.50
2022-07-26T01:44:15.223Z,536.20
2022-07-26T01:45:15.235Z,527.30
2022-07-26T01:46:15.246Z,555.40
2022-07-26T01:47:15.216Z,533.60
2022-07-26T01:48:15.175Z,495.40
2022-07-26T01:49:15.206Z,481.40
2022-07-26T01:50:15.129Z,470.30
2022-07-26T01:51:15.143Z,471.40
2022-07-26T01:52:15.163Z,515.10
2022-07-26T01:53:15.124Z,501.10
2022-07-26T01:54:15.121Z,524.80
2022-07-26T01:55:16.102Z,501.40
2022-07-26T01:56:15.095Z,509.50
2022-07-26T01:57:15.090Z,513.80
2022-07-26T01:58:15.047Z,506.00
2022-07-26T01:59:15.046Z,489.20
2022-07-26T02:00:15.060Z,521.30
2022-07-26T02:01:15.066Z,505.00
2022-07-26T02:02:15.166Z,493.80
2022-07-26T02:03:15.064Z,490.10
2022-07-26T02:04:14.990Z,498.90
2022-07-26T02:05:14.990Z,472.90
2022-07-26T02:06:14.955Z,451.70
2022-07-26T02:07:14.987Z,484.50
2022-07-26T02:08:14.936Z,456.60
2022-07-26T02:09:14.926Z,466.00
2022-07-26T02:10:14.929Z,478.50
2022-07-26T02:11:14.907Z,454.30
2022-07-26T02:12:14.923Z,455.70
2022-07-26T02:13:14.888Z,444.90
2022-07-26T02:14:25.718Z,467.60
2022-07-26T02:15:15.861Z,465.40
2022-07-26T02:16:14.900Z,426.50
2022-07-26T02:17:14.869Z,466.00
2022-07-26T02:18:14.845Z,429.90
2022-07-26T02:19:14.818Z,452.70
2022-07-26T02:20:14.806Z,464.20
2022-07-26T02:21:14.798Z,460.00
2022-07-26T02:22:14.810Z,481.10
2022-07-26T02:23:14.759Z,486.60
2022-07-26T02:24:14.784Z,491.60
2022-07-26T02:25:14.741Z,468.70
2022-07-26T02:26:14.734Z,440.00
2022-07-26T02:27:14.750Z,454.70
2022-07-26T02:28:14.714Z,483.30
2022-07-26T02:29:14.725Z,495.30
2022-07-26T02:30:14.703Z,448.80
2022-07-26T02:31:15.608Z,411.50
2022-07-26T02:32:14.703Z,472.00
2022-07-26T02:33:14.665Z,444.60
2022-07-26T02:34:14.652Z,432.90
2022-07-26T02:35:14.624Z,443.80
2022-07-26T02:36:14.641Z,401.00
2022-07-26T02:37:14.651Z,421.00
2022-07-26T02:38:14.593Z,413.10
2022-07-26T02:39:14.592Z,382.70
2022-07-26T02:40:19.111Z,424.00
2022-07-26T02:41:15.556Z,405.60
2022-07-26T02:42:14.585Z,406.10
2022-07-26T02:43:14.555Z,428.80
2022-07-26T02:44:14.541Z,447.50
2022-07-26T02:45:14.510Z,449.60
2022-07-26T02:46:14.545Z,453.30
2022-07-26T02:47:14.526Z,457.30
2022-07-26T02:48:14.580Z,471.20
2022-07-26T02:49:14.562Z,481.90
2022-07-26T02:50:14.468Z,491.40
2022-07-26T02:51:14.459Z,510.50
2022-07-26T02:52:14.584Z,531.50
2022-07-26T02:53:14.415Z,527.80
2022-07-26T02:54:14.430Z,517.90
2022-07-26T02:55:14.406Z,512.50
2022-07-26T02:56:14.485Z,508.30
2022-07-26T02:57:14.486Z,513.90
2022-07-26T02:58:14.390Z,514.10
2022-07-26T02:59:14.361Z,514.40
2022-07-26T03:00:14.391Z,525.10
2022-07-26T03:01:14.406Z,522.30
2022-07-26T03:02:14.489Z,527.00
2022-07-26T03:03:14.465Z,534.00
2022-07-26T03:04:14.299Z,547.70
2022-07-26T03:05:14.379Z,561.00
2022-07-26T03:06:14.391Z,569.80
2022-07-26T03:07:14.274Z,578.90
2022-07-26T03:08:14.372Z,589.70
2022-07-26T03:09:14.335Z,598.90
2022-07-26T03:10:14.250Z,601.00
2022-07-26T03:11:14.241Z,598.40
2022-07-26T03:12:14.204Z,612.50
2022-07-26T03:13:14.232Z,611.80
2022-07-26T03:14:14.208Z,621.10
2022-07-26T03:15:14.197Z,634.60
2022-07-26T03:16:16.166Z,652.20
2022-07-26T03:17:14.146Z,666.50
2022-07-26T03:18:14.180Z,663.70
2022-07-26T03:19:14.131Z,666.40
2022-07-26T03:20:14.142Z,653.50
2022-07-26T03:21:14.209Z,655.30
2022-07-26T03:22:14.110Z,649.00
2022-07-26T03:23:14.205Z,627.10
2022-07-26T03:24:14.072Z,611.30
2022-07-26T03:25:14.081Z,607.10
2022-07-26T03:26:14.086Z,607.50
2022-07-26T03:27:14.043Z,611.10
2022-07-26T03:28:19.129Z,655.30
2022-07-26T03:29:15.080Z,664.70
2022-07-26T03:30:14.018Z,650.00
2022-07-26T03:31:14.050Z,652.50
2022-07-26T03:32:14.062Z,666.60
2022-07-26T03:33:14.010Z,669.60
2022-07-26T03:34:13.977Z,663.30
2022-07-26T03:35:13.951Z,665.60
2022-07-26T03:36:15.499Z,654.00
2022-07-26T03:37:13.929Z,671.60
2022-07-26T03:38:13.961Z,660.80
2022-07-26T03:39:13.906Z,656.00
2022-07-26T03:40:13.997Z,661.60
2022-07-26T03:41:14.001Z,653.10
2022-07-26T03:42:13.872Z,627.50
2022-07-26T03:43:13.900Z,619.00
2022-07-26T03:44:13.859Z,648.10
2022-07-26T03:45:13.872Z,775.10
2022-07-26T03:46:13.870Z,659.60
2022-07-26T03:47:13.811Z,651.60
2022-07-26T03:48:13.889Z,639.80
2022-07-26T03:49:16.989Z,632.50
2022-07-26T03:50:14.044Z,604.20
2022-07-26T03:51:13.767Z,586.10
2022-07-26T03:52:13.775Z,591.10
2022-07-26T03:53:13.805Z,620.90
2022-07-26T03:54:13.763Z,614.20
2022-07-26T03:55:13.734Z,599.90
2022-07-26T03:56:13.722Z,604.00
2022-07-26T03:57:13.720Z,598.60
2022-07-26T03:58:13.781Z,602.90
2022-07-26T03:59:13.691Z,596.60
2022-07-26T04:00:13.673Z,591.50
2022-07-26T04:01:13.743Z,593.90
2022-07-26T04:02:13.698Z,591.40
2022-07-26T04:03:13.665Z,599.70
2022-07-26T04:04:13.624Z,594.10
2022-07-26T04:05:13.615Z,539.50
2022-07-26T04:06:13.615Z,598.40
2022-07-26T04:07:13.602Z,597.10
2022-07-26T04:08:13.633Z,600.10
2022-07-26T04:09:13.574Z,598.40
2022-07-26T04:10:13.572Z,551.20
2022-07-26T04:11:13.543Z,484.40
2022-07-26T04:12:13.541Z,514.90
2022-07-26T04:13:13.572Z,529.20
2022-07-26T04:14:13.509Z,600.10
2022-07-26T04:15:13.510Z,517.10
2022-07-26T04:16:13.507Z,559.10
2022-07-26T04:17:13.652Z,581.10
2022-07-26T04:18:13.511Z,531.00
2022-07-26T04:19:14.306Z,583.60
2022-07-26T04:20:13.447Z,597.00
2022-07-26T04:21:13.438Z,597.10
2022-07-26T04:22:13.415Z,590.00
2022-07-26T04:23:13.441Z,598.30
2022-07-26T04:24:13.432Z,598.60
2022-07-26T04:25:13.407Z,587.60
2022-07-26T04:26:13.398Z,626.00
2022-07-26T04:27:13.370Z,550.40
2022-07-26T04:28:13.391Z,570.10
2022-07-26T04:29:13.343Z,583.90
2022-07-26T04:30:15.461Z,574.20
2022-07-26T04:31:13.444Z,563.50
2022-07-26T04:32:13.303Z,594.60
2022-07-26T04:33:13.336Z,552.10
2022-07-26T04:34:13.319Z,528.00
2022-07-26T04:35:13.290Z,517.60
2022-07-26T04:36:13.286Z,466.00
2022-07-26T04:37:13.252Z,463.10
2022-07-26T04:38:13.272Z,391.10
2022-07-26T04:39:13.241Z,365.30
2022-07-26T04:40:13.237Z,373.80
2022-07-26T04:41:13.221Z,354.70
2022-07-26T04:42:13.237Z,351.60
2022-07-26T04:43:15.761Z,352.60
2022-07-26T04:44:13.226Z,329.80
2022-07-26T04:45:13.164Z,332.90
2022-07-26T04:46:13.231Z,341.90
2022-07-26T04:47:13.199Z,306.90
2022-07-26T04:48:13.191Z,299.90
2022-07-26T04:49:13.190Z,350.50
2022-07-26T04:50:13.109Z,336.10
2022-07-26T04:51:13.105Z,270.00
2022-07-26T04:52:13.102Z,369.90
2022-07-26T04:53:13.123Z,340.60
2022-07-26T04:54:13.066Z,250.30
2022-07-26T04:55:13.093Z,320.30
2022-07-26T04:56:13.064Z,236.70
2022-07-26T04:57:13.053Z,298.30
2022-07-26T04:58:13.067Z,207.60
2022-07-26T04:59:13.035Z,232.10
2022-07-26T05:00:27.999Z,321.50
2022-07-26T05:01:14.089Z,350.60
2022-07-26T05:02:13.122Z,316.50
2022-07-26T05:03:13.081Z,234.90
2022-07-26T05:04:12.991Z,331.50
2022-07-26T05:05:12.964Z,322.20
2022-07-26T05:06:12.977Z,345.80
2022-07-26T05:07:12.928Z,232.70
2022-07-26T05:08:12.989Z,221.20
2022-07-26T05:09:12.914Z,258.90
2022-07-26T05:10:12.908Z,200.60
2022-07-26T05:11:12.901Z,163.20
2022-07-26T05:12:12.884Z,220.50
2022-07-26T05:13:12.960Z,219.60
2022-07-26T05:14:12.977Z,218.10
2022-07-26T05:15:13.893Z,234.50
2022-07-26T05:16:12.846Z,229.40
2022-07-26T05:17:12.844Z,213.80
2022-07-26T05:18:13.882Z,208.10
2022-07-26T05:19:12.872Z,243.50
2022-07-26T05:20:12.811Z,238.10
2022-07-26T05:21:12.774Z,191.30
2022-07-26T05:22:12.905Z,205.10
2022-07-26T05:23:12.783Z,216.20
2022-07-26T05:24:12.963Z,276.60
2022-07-26T05:25:12.746Z,224.50
2022-07-26T05:26:12.819Z,269.00
2022-07-26T05:27:12.716Z,250.00
2022-07-26T05:28:12.736Z,222.60
2022-07-26T05:29:12.679Z,232.80
2022-07-26T05:30:12.725Z,227.50
2022-07-26T05:31:12.717Z,272.00
2022-07-26T05:32:12.661Z,280.90
2022-07-26T05:33:16.625Z,278.60
2022-07-26T05:34:12.647Z,282.00
2022-07-26T05:35:12.745Z,277.70
2022-07-26T05:36:12.605Z,287.60
2022-07-26T05:37:12.602Z,280.90
2022-07-26T05:38:12.622Z,316.20
2022-07-26T05:39:15.902Z,334.40
2022-07-26T05:40:12.551Z,366.00
2022-07-26T05:41:12.646Z,381.30
2022-07-26T05:42:12.637Z,380.70
2022-07-26T05:43:12.537Z,396.00
2022-07-26T05:44:12.560Z,414.40
2022-07-26T05:45:12.512Z,440.60
2022-07-26T05:46:12.612Z,449.70
2022-07-26T05:47:12.493Z,451.40
2022-07-26T05:48:12.645Z,435.80
2022-07-26T05:49:13.601Z,447.50
2022-07-26T05:50:12.435Z,461.40
2022-07-26T05:51:12.441Z,473.00
2022-07-26T05:52:12.423Z,500.90
2022-07-26T05:53:12.461Z,486.60
2022-07-26T05:54:12.427Z,469.00
2022-07-26T05:55:12.501Z,461.00
2022-07-26T05:56:12.492Z,482.90
2022-07-26T05:57:12.374Z,491.80
2022-07-26T05:58:12.389Z,497.60
2022-07-26T05:59:12.391Z,491.90
2022-07-26T06:00:12.339Z,480.80
2022-07-26T06:01:12.438Z,488.10
2022-07-26T06:02:12.452Z,490.50
2022-07-26T06:03:12.321Z,518.40
2022-07-26T06:04:13.066Z,508.80
2022-07-26T06:05:12.281Z,489.60
2022-07-26T06:06:12.294Z,487.70
2022-07-26T06:07:12.262Z,497.90
2022-07-26T06:08:12.259Z,548.90
2022-07-26T06:09:12.301Z,551.30
2022-07-26T06:10:12.375Z,528.30
2022-07-26T06:11:12.232Z,509.50
2022-07-26T06:12:12.231Z,499.30
2022-07-26T06:13:12.192Z,482.20
2022-07-26T06:14:12.580Z,442.70
2022-07-26T06:15:14.877Z,412.00
2022-07-26T06:16:12.167Z,398.70
2022-07-26T06:17:12.251Z,414.80
2022-07-26T06:18:12.169Z,446.70
2022-07-26T06:19:12.184Z,464.70
2022-07-26T06:20:12.127Z,415.10
2022-07-26T06:21:12.120Z,309.30
2022-07-26T06:22:12.095Z,229.30
2022-07-26T06:23:12.097Z,199.00
2022-07-26T06:24:12.478Z,185.90
2022-07-26T06:25:12.089Z,169.60
2022-07-26T06:26:12.073Z,180.00
2022-07-26T06:27:12.033Z,182.60
2022-07-26T06:28:12.055Z,165.50
2022-07-26T06:29:12.094Z,148.70
2022-07-26T06:30:12.030Z,103.20
2022-07-26T06:31:12.042Z,164.50
2022-07-26T06:32:12.038Z,218.00
2022-07-26T06:33:11.980Z,192.70
2022-07-26T06:34:12.317Z,202.70
2022-07-26T06:35:11.961Z,173.60
2022-07-26T06:36:11.978Z,156.50
2022-07-26T06:37:11.908Z,152.30
2022-07-26T06:38:11.901Z,157.20
2022-07-26T06:39:11.944Z,141.70
2022-07-26T06:40:11.911Z,133.00
2022-07-26T06:41:11.872Z,175.20
2022-07-26T06:42:11.902Z,182.90
2022-07-26T06:43:11.854Z,177.50
2022-07-26T06:44:12.130Z,151.30
2022-07-26T06:45:11.860Z,121.70
2022-07-26T06:46:11.964Z,88.30
2022-07-26T06:47:11.832Z,78.80
2022-07-26T06:48:11.914Z,50.60
2022-07-26T06:49:11.928Z,66.10
2022-07-26T06:50:11.778Z,81.00
2022-07-26T06:51:11.760Z,107.40
2022-07-26T06:52:11.761Z,116.30
2022-07-26T06:53:11.790Z,103.40
2022-07-26T06:54:11.959Z,122.10
2022-07-26T06:55:12.512Z,102.10
2022-07-26T06:56:11.725Z,95.80
2022-07-26T06:57:11.822Z,104.20
2022-07-26T06:58:11.702Z,98.80
2022-07-26T06:59:11.750Z,67.20
2022-07-26T07:00:11.654Z,55.60
2022-07-26T07:01:11.700Z,55.10
2022-07-26T07:02:11.678Z,78.20
2022-07-26T07:03:11.648Z,106.70
2022-07-26T07:04:12.033Z,121.40
2022-07-26T07:05:11.853Z,88.00
2022-07-26T07:06:11.622Z,53.90
2022-07-26T07:07:11.604Z,39.10
2022-07-26T07:08:11.618Z,44.90
2022-07-26T07:09:11.657Z,53.30
2022-07-26T07:10:12.608Z,40.90
2022-07-26T07:11:11.580Z,39.10
2022-07-26T07:12:11.545Z,47.40
2022-07-26T07:13:11.542Z,52.50
2022-07-26T07:14:11.812Z,75.00
2022-07-26T07:15:11.523Z,82.80
2022-07-26T07:16:11.542Z,96.10
2022-07-26T07:17:15.944Z,83.50
2022-07-26T07:18:12.580Z,92.10
2022-07-26T07:19:11.520Z,73.50
2022-07-26T07:20:11.449Z,50.50
2022-07-26T07:21:11.455Z,44.70
2022-07-26T07:22:11.531Z,60.00
2022-07-26T07:23:11.427Z,48.10
2022-07-26T07:24:11.841Z,47.50
2022-07-26T07:25:11.479Z,36.10
2022-07-26T07:26:11.378Z,67.40
2022-07-26T07:27:11.353Z,119.30
2022-07-26T07:28:11.414Z,86.30
2022-07-26T07:29:11.388Z,66.40
2022-07-26T07:30:11.376Z,88.00
2022-07-26T07:31:11.481Z,82.50
2022-07-26T07:32:16.097Z,80.60
2022-07-26T07:33:18.798Z,68.50
2022-07-26T07:34:12.638Z,62.10
2022-07-26T07:35:12.619Z,51.50
2022-07-26T07:36:11.295Z,57.40
2022-07-26T07:37:11.257Z,63.40
2022-07-26T07:38:11.277Z,59.00
2022-07-26T07:39:17.103Z,46.90
2022-07-26T07:40:12.277Z,46.80
2022-07-26T07:41:11.260Z,66.90
2022-07-26T07:42:11.241Z,125.30
2022-07-26T07:43:11.192Z,69.70
2022-07-26T07:44:11.556Z,62.00
2022-07-26T07:45:11.178Z,123.60
2022-07-26T07:46:11.154Z,102.90
2022-07-26T07:47:11.295Z,154.20
2022-07-26T07:48:11.135Z,157.20
2022-07-26T07:49:11.828Z,97.30
2022-07-26T07:50:11.179Z,70.30
2022-07-26T07:51:11.099Z,140.60
2022-07-26T07:52:11.129Z,194.60
2022-07-26T07:53:11.202Z,190.00
2022-07-26T07:54:11.107Z,99.50
2022-07-26T07:55:39.949Z,76.70
2022-07-26T07:56:12.030Z,66.40
2022-07-26T07:57:11.054Z,125.40
2022-07-26T07:58:11.014Z,189.40
2022-07-26T07:59:11.486Z,179.80
2022-07-26T08:00:11.832Z,160.20
2022-07-26T08:01:11.044Z,174.20
2022-07-26T08:02:10.979Z,164.40
2022-07-26T08:03:10.974Z,127.10
2022-07-26T08:04:11.031Z,91.60
2022-07-26T08:05:13.956Z,70.10
2022-07-26T08:06:10.950Z,74.00
2022-07-26T08:07:10.937Z,84.90
2022-07-26T08:08:10.909Z,111.50
2022-07-26T08:09:13.351Z,95.50
2022-07-26T08:10:10.926Z,106.50
2022-07-26T08:11:10.914Z,129.00
2022-07-26T08:12:10.868Z,112.40
2022-07-26T08:13:10.957Z,80.70
2022-07-26T08:14:11.013Z,93.10
2022-07-26T08:15:10.845Z,97.60
2022-07-26T08:16:10.847Z,71.00
2022-07-26T08:17:10.819Z,28.00
2022-07-26T08:18:10.816Z,58.40
2022-07-26T08:19:11.086Z,96.60
2022-07-26T08:20:14.782Z,108.30
2022-07-26T08:21:11.843Z,103.50
2022-07-26T08:22:10.803Z,72.30
2022-07-26T08:23:10.797Z,81.00
2022-07-26T08:24:10.738Z,67.60
2022-07-26T08:25:10.783Z,64.70
2022-07-26T08:26:10.732Z,50.20
2022-07-26T08:27:10.770Z,40.60
2022-07-26T08:28:30.679Z,33.30
2022-07-26T08:29:12.043Z,29.50
2022-07-26T08:30:10.694Z,34.90
2022-07-26T08:31:10.744Z,37.80
2022-07-26T08:32:10.636Z,36.40
2022-07-26T08:33:10.652Z,38.30
2022-07-26T08:34:10.656Z,40.30
2022-07-26T08:35:17.358Z,38.60
2022-07-26T08:36:11.628Z,36.00
2022-07-26T08:37:18.269Z,35.00
2022-07-26T08:38:11.566Z,39.50
2022-07-26T08:39:10.855Z,40.30
2022-07-26T08:40:10.614Z,40.00
2022-07-26T08:41:10.585Z,37.70
2022-07-26T08:42:10.575Z,34.60
2022-07-26T08:43:10.546Z,36.20
2022-07-26T08:44:10.555Z,35.50
2022-07-26T08:45:10.541Z,29.90
2022-07-26T08:46:11.651Z,30.80
2022-07-26T08:47:10.507Z,35.10
2022-07-26T08:48:18.743Z,44.70
2022-07-26T08:49:12.281Z,72.60
2022-07-26T08:50:10.470Z,67.10
2022-07-26T08:51:11.097Z,64.50
2022-07-26T08:52:10.458Z,67.20
2022-07-26T08:53:10.533Z,60.90
2022-07-26T08:54:10.406Z,63.50
2022-07-26T08:55:10.470Z,86.50
2022-07-26T08:56:10.401Z,79.90
2022-07-26T08:57:10.373Z,54.60
2022-07-26T08:58:10.361Z,46.60
2022-07-26T08:59:14.378Z,22.20
2022-07-26T09:00:11.412Z,22.10
2022-07-26T09:01:10.368Z,43.00
2022-07-26T09:02:10.337Z,45.30
2022-07-26T09:03:10.328Z,41.50
2022-07-26T09:04:13.578Z,45.90
2022-07-26T09:05:10.295Z,39.20
2022-07-26T09:06:10.343Z,36.80
2022-07-26T09:07:10.267Z,21.50
2022-07-26T09:08:10.314Z,29.10
2022-07-26T09:09:10.610Z,22.00
2022-07-26T09:10:10.338Z,22.70
2022-07-26T09:11:10.290Z,17.70
2022-07-26T09:12:10.195Z,26.80
2022-07-26T09:13:10.230Z,10.40
2022-07-26T09:14:10.283Z,11.20
2022-07-26T09:15:10.193Z,11.10
2022-07-26T09:16:10.318Z,15.80
2022-07-26T09:17:10.160Z,10.30
2022-07-26T09:18:10.125Z,8.50
2022-07-26T09:19:10.330Z,10.40
2022-07-26T09:20:10.278Z,13.10
2022-07-26T09:21:10.181Z,10.60
2022-07-26T09:22:10.669Z,8.10
2022-07-26T09:23:10.108Z,10.10
2022-07-26T09:24:10.080Z,12.60
2022-07-26T09:25:10.129Z,12.00
2022-07-26T09:26:10.153Z,12.20
2022-07-26T09:27:10.068Z,13.30
2022-07-26T09:28:10.035Z,12.20
2022-07-26T09:29:10.433Z,13.90
2022-07-26T09:30:10.025Z,10.70
2022-07-26T09:31:10.107Z,10.80
2022-07-26T09:32:10.090Z,10.20
2022-07-26T09:33:09.984Z,10.70
2022-07-26T09:34:10.429Z,7.80
2022-07-26T09:35:23.931Z,9.40
2022-07-26T09:36:11.132Z,9.90
2022-07-26T09:37:12.499Z,8.50
2022-07-26T09:38:09.912Z,9.40
2022-07-26T09:39:10.372Z,9.20
2022-07-26T09:40:09.934Z,8.80
2022-07-26T09:41:10.045Z,9.10
2022-07-26T09:43:10.863Z,10.90
2022-07-26T09:44:11.290Z,13.30
2022-07-26T09:45:09.852Z,13.20
2022-07-26T09:46:10.061Z,13.80
2022-07-26T09:47:09.920Z,11.90
2022-07-26T09:48:09.828Z,12.50
2022-07-26T09:49:11.455Z,13.90
2022-07-26T09:50:11.635Z,12.10
2022-07-26T09:51:09.939Z,10.60
2022-07-26T09:52:09.811Z,8.30
2022-07-26T09:53:09.790Z,6.80
2022-07-26T09:54:10.203Z,10.20
2022-07-26T09:55:09.773Z,15.30
2022-07-26T09:56:09.776Z,12.80
2022-07-26T09:57:09.742Z,10.40
2022-07-26T09:58:09.709Z,8.50
2022-07-26T09:59:09.731Z,15.30
2022-07-26T10:00:09.693Z,17.30
2022-07-26T10:01:09.726Z,23.60
2022-07-26T10:02:09.746Z,19.00
2022-07-26T10:03:09.726Z,19.70
2022-07-26T10:04:09.949Z,15.80
2022-07-26T10:05:09.660Z,13.40
2022-07-26T10:06:09.669Z,12.00
2022-07-26T10:07:09.630Z,12.70
2022-07-26T10:08:09.635Z,11.80
2022-07-26T10:09:09.607Z,10.50
2022-07-26T10:10:09.580Z,14.10
2022-07-26T10:11:09.663Z,20.30
2022-07-26T10:12:09.566Z,20.00
2022-07-26T10:13:09.556Z,13.70
2022-07-26T10:14:09.774Z,12.10
2022-07-26T10:15:09.512Z,15.70
2022-07-26T10:16:09.583Z,21.30
2022-07-26T10:17:10.529Z,16.30
2022-07-26T10:18:09.508Z,51.60
2022-07-26T10:19:10.569Z,99.30
2022-07-26T10:20:16.882Z,44.60
2022-07-26T10:21:10.501Z,32.30
2022-07-26T10:22:09.463Z,39.60
2022-07-26T10:23:09.477Z,48.50
2022-07-26T10:24:09.697Z,46.30
2022-07-26T10:25:09.418Z,27.80
2022-07-26T10:26:09.912Z,23.60
2022-07-26T10:27:09.397Z,26.30
2022-07-26T10:28:11.781Z,21.90
2022-07-26T10:29:09.380Z,21.50
2022-07-26T10:30:09.385Z,20.90
2022-07-26T10:31:09.428Z,23.40
2022-07-26T10:32:09.373Z,24.90
2022-07-26T10:33:09.338Z,33.50
2022-07-26T10:34:09.682Z,35.50
2022-07-26T10:35:09.306Z,25.10
2022-07-26T10:36:09.317Z,35.40
2022-07-26T10:37:09.311Z,45.30
2022-07-26T10:38:09.471Z,36.30
2022-07-26T10:39:09.387Z,31.90
2022-07-26T10:40:09.234Z,47.90
2022-07-26T10:41:09.305Z,49.30
2022-07-26T10:42:09.196Z,19.80
2022-07-26T10:43:37.754Z,16.60
2022-07-26T10:44:10.537Z,21.00
2022-07-26T10:45:09.203Z,14.80
2022-07-26T10:46:09.243Z,14.20
2022-07-26T10:47:09.305Z,30.90
2022-07-26T10:48:09.242Z,30.40
2022-07-26T10:49:09.253Z,17.20
2022-07-26T10:50:09.170Z,19.50
2022-07-26T10:51:09.110Z,15.50
2022-07-26T10:52:09.169Z,11.60
2022-07-26T10:53:09.113Z,9.90
2022-07-26T10:54:09.694Z,8.90
2022-07-26T10:55:09.104Z,8.50
2022-07-26T10:56:09.080Z,8.70
2022-07-26T10:57:09.130Z,8.70
2022-07-26T10:58:09.151Z,8.90
2022-07-26T10:59:09.035Z,10.50
2022-07-26T11:00:09.071Z,8.80
2022-07-26T11:01:09.121Z,9.10
2022-07-26T11:02:09.092Z,8.90
2022-07-26T11:03:09.045Z,14.90
2022-07-26T11:04:10.247Z,9.90
2022-07-26T11:05:09.021Z,11.00
2022-07-26T11:06:08.966Z,10.30
2022-07-26T11:07:09.016Z,11.30
2022-07-26T11:08:08.978Z,10.00
2022-07-26T11:09:08.987Z,9.70
2022-07-26T11:10:08.984Z,9.10
2022-07-26T11:11:08.956Z,12.50
2022-07-26T11:12:08.992Z,8.70
2022-07-26T11:13:08.920Z,9.80
2022-07-26T11:14:09.357Z,10.50
2022-07-26T11:15:08.905Z,9.70
2022-07-26T11:16:08.918Z,9.40
2022-07-26T11:17:08.953Z,9.00
2022-07-26T11:18:08.878Z,11.20
2022-07-26T11:19:08.823Z,12.00
2022-07-26T11:20:08.851Z,12.50
2022-07-26T11:21:08.865Z,12.50
2022-07-26T11:22:08.882Z,12.70
2022-07-26T11:23:08.843Z,14.30
2022-07-26T11:24:09.252Z,16.10
2022-07-26T11:25:08.798Z,16.00
2022-07-26T11:26:08.795Z,16.60
2022-07-26T11:27:08.856Z,15.20
2022-07-26T11:28:08.782Z,16.50
2022-07-26T11:29:08.725Z,18.80
2022-07-26T11:30:08.756Z,19.80
2022-07-26T11:31:08.765Z,21.90
2022-07-26T11:32:14.817Z,21.90
2022-07-26T11:33:09.736Z,21.60
2022-07-26T11:34:08.964Z,18.60
2022-07-26T11:35:08.694Z,14.50
2022-07-26T11:36:08.701Z,12.70
2022-07-26T11:37:08.694Z,12.40
2022-07-26T11:38:12.189Z,12.10
2022-07-26T11:39:08.672Z,13.70
2022-07-26T11:40:08.653Z,13.50
2022-07-26T11:41:08.633Z,14.20
2022-07-26T11:42:08.668Z,14.90
2022-07-26T11:43:08.742Z,13.40
2022-07-26T11:44:08.639Z,12.80
2022-07-26T11:45:08.601Z,12.90
2022-07-26T11:46:08.642Z,12.00
2022-07-26T11:47:08.610Z,10.80
2022-07-26T11:48:08.597Z,10.30
2022-07-26T11:49:08.592Z,10.60
2022-07-26T11:50:16.797Z,9.30
2022-07-26T11:51:09.524Z,8.90
2022-07-26T11:52:08.546Z,10.90
2022-07-26T11:53:08.521Z,8.10
2022-07-26T11:54:08.877Z,9.80
2022-07-26T11:55:08.489Z,7.80
2022-07-26T11:56:08.459Z,8.10
2022-07-26T11:57:08.533Z,8.30
2022-07-26T11:58:08.549Z,9.00
2022-07-26T11:59:08.557Z,10.50
2022-07-26T12:00:08.437Z,10.80
2022-07-26T12:01:08.481Z,9.90
2022-07-26T12:02:08.453Z,10.00
2022-07-26T12:03:08.496Z,10.30
2022-07-26T12:04:09.164Z,14.40
2022-07-26T12:05:08.465Z,11.70
2022-07-26T12:06:08.406Z,11.80
2022-07-26T12:07:08.400Z,9.40
2022-07-26T12:08:08.428Z,9.80
2022-07-26T12:09:08.355Z,12.00
2022-07-26T12:10:08.356Z,13.00
2022-07-26T12:11:08.410Z,11.50
2022-07-26T12:12:08.432Z,12.50
2022-07-26T12:13:08.316Z,9.20
2022-07-26T12:14:08.616Z,9.30
2022-07-26T12:15:08.281Z,9.50
2022-07-26T12:16:08.303Z,7.80
2022-07-26T12:17:08.269Z,9.00
2022-07-26T12:18:08.363Z,8.50
2022-07-26T12:19:08.221Z,8.70
2022-07-26T12:20:08.259Z,9.50
2022-07-26T12:21:08.887Z,9.50
2022-07-26T12:22:08.217Z,10.50
2022-07-26T12:23:08.275Z,9.90
2022-07-26T12:24:08.528Z,8.70
2022-07-26T12:25:08.189Z,8.30
2022-07-26T12:26:10.111Z,8.50
2022-07-26T12:27:08.153Z,12.50
2022-07-26T12:28:08.219Z,13.10
2022-07-26T12:29:08.155Z,11.00
2022-07-26T12:30:08.137Z,9.00
2022-07-26T12:31:08.204Z,10.10
2022-07-26T12:32:12.293Z,10.70
2022-07-26T12:33:08.225Z,10.50
2022-07-26T12:34:08.634Z,9.60
2022-07-26T12:35:08.091Z,7.90
2022-07-26T12:36:08.064Z,7.10
2022-07-26T12:37:08.050Z,9.70
2022-07-26T12:38:08.106Z,8.80
2022-07-26T12:39:08.016Z,10.60
2022-07-26T12:40:08.155Z,9.60
2022-07-26T12:41:08.018Z,11.20